Latest Coastal Weather Observations for Gladstone

IDQ60701

Issued at 11:51 am EST Tuesday 26 September 2017 (issued every 10 minutes, with the page automatically refreshed every 10 minutes)

About coastal observations | Map of coastal stations | Coastal observations for QLD | Marine services | Other Formats
Station Details ID: 039123 Name: GLADSTONE RADAR Lat: -23.86 Lon: 151.26 Height: 74.5 m
Data from the previous 72 hours. | See also: Recent months at Gladstone
Date/Time
EST
Temp
°C
Wind Pressure Rain since
9am
mm
Weather Cloud Vis
km
Sea
Height
m
Swell
Dir  Spd
kts
Gust
kts
hPa Trend Height
m
Period
s
Dir
26/11:30am 29.3 W 6 11 1014.6 - 0.0 - - - - - - -
26/11:00am 28.3 WNW 7 11 1015.1 - 0.0 - - - - - - -
26/10:30am 27.6 WNW 7 15 1015.4 - 0.0 - - - - - - -
26/10:00am 26.2 WNW 6 12 1015.6 - 0.0 - - - - - - -
26/09:30am 24.4 NW 8 13 1015.8 - 0.0 - - - - - - -
26/09:00am 23.4 WNW 8 15 1016.4 - 0.0 - - - - - - -
26/08:30am 23.0 NW 7 15 1016.8 - 0.0 - - - - - - -
26/08:00am 21.9 NW 6 10 1016.7 - 0.0 - - - - - - -
26/07:30am 21.4 WNW 4 8 1016.5 - 0.0 - - - - - - -
26/07:00am 20.3 N 3 5 1016.1 - 0.0 - - - - - - -
26/06:30am 19.5 NW 2 4 1015.8 - 0.0 - - - - - - -
26/06:00am 19.5 NW 2 5 1015.7 - 0.0 - - - - - - -
26/05:30am 19.8 NW 4 6 1015.3 - 0.0 - - - - - - -
26/05:00am 20.2 NW 5 8 1014.8 - 0.0 - - - - - - -
26/04:30am 20.0 NW 5 8 1014.3 - 0.0 - - - - - - -
26/04:00am 20.2 NW 7 11 1013.9 - 0.0 - - - - - - -
26/03:30am 20.3 NW 8 15 1013.7 - 0.0 - - - - - - -
26/03:00am 20.4 NW 9 14 1013.7 - 0.0 - - - - - - -
26/02:30am 20.3 NW 6 10 1013.8 - 0.0 - - - - - - -
26/02:00am 20.4 NW 7 11 1014.0 - 0.0 - - - - - - -
26/01:30am 20.0 NNW 5 8 1014.2 - 0.0 - - - - - - -
26/01:00am 20.4 NNW 6 9 1014.3 - 0.0 - - - - - - -
26/12:30am 20.5 NNW 7 9 1014.5 - 0.0 - - - - - - -
26/12:00am 20.6 NNW 6 9 1014.9 - 0.0 - - - - - - -
 
Date/Time
EST
Temp
°C
Wind Pressure Rain since
9am
mm
Weather Cloud Vis
km
Sea
Height
m
Swell
Dir  Spd
kts
Gust
kts
hPa Trend Height
m
Period
s
Dir
25/11:30pm 20.8 NNW 7 10 1015.1 - 0.0 - - - - - - -
25/11:00pm 20.9 NNW 5 8 1015.2 - 0.0 - - - - - - -
25/10:30pm 21.0 NNW 6 8 1015.4 - 0.0 - - - - - - -
25/10:00pm 21.2 NNW 6 10 1015.4 - 0.0 - - - - - - -
25/09:30pm 21.2 NNW 5 10 1015.6 - 0.0 - - - - - - -
25/09:00pm 21.3 NNW 6 8 1015.4 - 0.0 - - - - - - -
25/08:30pm 21.4 NNW 5 8 1015.3 - 0.0 - - - - - - -
25/08:00pm 21.5 NNW 6 11 1015.1 - 0.0 - - - - - - -
25/07:30pm 21.6 NNW 5 8 1014.7 - 0.0 - - - - - - -
25/07:00pm 21.8 N 6 11 1014.4 - 0.0 - - - - - - -
25/06:30pm 22.0 N 6 11 1014.2 - 0.0 - - - - - - -
25/06:00pm 22.4 N 7 14 1014.0 - 0.0 - - - - - - -
25/05:30pm 23.1 N 7 12 1013.8 - 0.0 - - - - - - -
25/05:00pm 23.7 NNE 7 16 1013.6 - 0.0 - - - - - - -
25/04:30pm 24.4 NNE 9 17 1013.3 - 0.0 - - - - - - -
25/04:00pm 25.2 NNE 9 15 1013.2 - 0.0 - - - - - - -
25/03:30pm 26.1 NNE 9 15 1013.2 - 0.0 - - - - - - -
25/03:00pm 27.0 NNE 9 16 1013.3 - 0.0 - - - - - - -
25/02:30pm 27.9 NNE 9 18 1013.5 - 0.0 - - - - - - -
25/02:00pm 27.6 NNE 10 17 1013.9 - 0.0 - - - - - - -
25/01:30pm 28.5 NNE 9 15 1014.3 - 0.0 - - - - - - -
25/01:00pm 29.6 NNE 9 17 1014.7 - 0.0 - - - - - - -
25/12:30pm 29.7 NNE 8 16 1015.0 - 0.0 - - - - - - -
25/12:00pm 28.0 N 7 15 1015.6 - 0.0 - - - - - - -
25/11:30am 28.9 NW 5 9 1016.1 - 0.0 - - - - - - -
25/11:00am 28.6 NNW 6 9 1016.6 - 0.0 - - - - - - -
25/10:30am 26.0 NNW 6 12 1017.0 - 0.0 - - - - - - -
25/10:00am 25.7 WNW 6 9 1017.3 - 0.0 - - - - - - -
25/09:30am 24.7 NW 6 12 1017.6 - 0.0 - - - - - - -
25/09:00am 23.9 NW 7 10 1017.6 - 0.0 - - - - - - -
25/08:30am 22.5 NW 7 9 1017.7 - 0.0 - - - - - - -
25/08:00am 21.9 WNW 5 8 1017.6 - 0.0 - - - - - - -
25/07:30am 21.0 NNW 3 6 1017.4 - 0.0 - - - - - - -
25/07:00am 19.7 NNW 3 4 1017.1 - 0.0 - - - - - - -
25/06:30am 19.2 NNW 3 5 1016.8 - 0.0 - - - - - - -
25/06:00am 18.9 NNW 4 6 1016.4 - 0.0 - - - - - - -
25/05:30am 19.8 NNW 5 9 1016.0 - 0.0 - - - - - - -
25/05:00am 19.9 NNW 6 9 1015.3 - 0.0 - - - - - - -
25/04:30am 20.0 NNW 7 11 1014.8 - 0.0 - - - - - - -
25/04:00am 20.2 NNW 7 10 1014.6 - 0.0 - - - - - - -
25/03:30am 20.2 NNW 7 11 1014.6 - 0.0 - - - - - - -
25/03:00am 20.4 NW 7 9 1014.4 - 0.0 - - - - - - -
25/02:30am 20.2 NW 6 7 1014.6 - 0.0 - - - - - - -
25/02:00am 20.3 NW 6 9 1014.8 - 0.0 - - - - - - -
25/01:30am 20.5 NW 6 9 1015.0 - 0.0 - - - - - - -
25/01:00am 20.8 NNW 8 11 1015.2 - 0.0 - - - - - - -
25/12:30am 20.9 NNW 8 11 1015.6 - 0.0 - - - - - - -
25/12:00am 20.8 NNW 6 9 1015.7 - 0.0 - - - - - - -
 
Date/Time
EST
Temp
°C
Wind Pressure Rain since
9am
mm
Weather Cloud Vis
km
Sea
Height
m
Swell
Dir  Spd
kts
Gust
kts
hPa Trend Height
m
Period
s
Dir
24/11:30pm 21.0 NNW 7 11 1015.8 - 0.0 - - - - - - -
24/11:00pm 21.1 NNW 7 10 1015.8 - 0.0 - - - - - - -
24/10:30pm 21.1 NNW 5 8 1015.9 - 0.0 - - - - - - -
24/10:00pm 21.2 NNW 6 11 1015.9 - 0.0 - - - - - - -
24/09:30pm 21.4 NNW 7 10 1015.9 - 0.0 - - - - - - -
24/09:00pm 21.5 NNW 6 11 1015.8 - 0.0 - - - - - - -
24/08:30pm 21.6 NNW 6 9 1015.6 - 0.0 - - - - - - -
24/08:00pm 21.8 NNW 7 10 1015.2 - 0.0 - - - - - - -
24/07:30pm 21.9 NNW 7 11 1014.6 - 0.0 - - - - - - -
24/07:00pm 22.0 N 7 12 1014.3 - 0.0 - - - - - - -
24/06:30pm 22.4 N 7 15 1014.1 - 0.0 - - - - - - -
24/06:00pm 22.6 N 7 13 1013.9 - 0.0 - - - - - - -
24/05:30pm 23.1 N 7 13 1013.7 - 0.0 - - - - - - -
24/05:00pm 23.8 N 8 14 1013.4 - 0.0 - - - - - - -
24/04:30pm 24.6 N 8 19 1013.3 - 0.0 - - - - - - -
24/04:00pm 25.5 N 9 17 1013.3 - 0.0 - - - - - - -
24/03:30pm 25.9 NNE 9 17 1013.3 - 0.0 - - - - - - -
24/03:00pm 26.7 NNE 10 19 1013.4 - 0.0 - - - - - - -
24/02:30pm 26.6 NNE 12 21 1013.5 - 0.0 - - - - - - -
24/02:00pm 27.8 NNE 11 21 1013.8 - 0.0 - - - - - - -
24/01:30pm 28.0 NNE 11 21 1014.2 - 0.0 - - - - - - -
24/01:00pm 28.8 NNE 9 18 1014.6 - 0.0 - - - - - - -
24/12:30pm 30.2 N 7 14 1014.9 - 0.0 - - - - - - -
24/12:00pm 30.2 NNW 7 13 1015.6 - 0.0 - - - - - - -
24/11:30am 28.9 NW 5 10 1016.2 - 0.0 - - - - - - -
24/11:00am 27.2 NW 6 14 1016.5 - 0.0 - - - - - - -
24/10:30am 26.5 WNW 5 9 1016.9 - 0.0 - - - - - - -
24/10:00am 25.4 WNW 7 12 1017.2 - 0.0 - - - - - - -
24/09:30am 24.9 W 6 10 1017.4 - 0.0 - - - - - - -
24/09:00am 23.2 NW 7 11 1017.5 - 0.0 - - - - - - -
24/08:30am 22.5 NW 6 10 1017.6 - 0.0 - - - - - - -
24/08:00am 21.9 NNW 5 9 1017.5 - 0.0 - - - - - - -
24/07:30am 20.8 NNW 4 7 1017.3 - 0.0 - - - - - - -
24/07:00am 19.9 NNW 3 5 1017.1 - 0.0 - - - - - - -
24/06:30am 19.0 NNW 3 5 1016.7 - 0.0 - - - - - - -
24/06:00am 18.9 NNW 4 6 1016.5 - 0.0 - - - - - - -
24/05:30am 18.8 NNW 4 5 1016.3 - 0.0 - - - - - - -
24/05:00am 18.4 NNW 4 5 1015.9 - 0.0 - - - - - - -
24/04:30am 18.7 NNW 4 6 1015.6 - 0.0 - - - - - - -
24/04:00am 18.8 NNW 4 5 1015.4 - 0.0 - - - - - - -
24/03:30am 19.2 NNW 5 8 1015.3 - 0.0 - - - - - - -
24/03:00am 19.1 NNW 4 6 1015.3 - 0.0 - - - - - - -
24/02:30am 19.3 NNW 5 7 1015.6 - 0.0 - - - - - - -
24/02:00am 19.3 NNW 4 4 1015.9 - 0.0 - - - - - - -
24/01:30am 19.8 NNW 3 5 1016.1 - 0.0 - - - - - - -
24/01:00am 20.2 NNW 5 7 1016.4 - 0.0 - - - - - - -
24/12:30am 20.6 NNW 6 9 1016.7 - 0.0 - - - - - - -
24/12:00am 20.6 NNW 6 9 1016.9 - 0.0 - - - - - - -
 
Date/Time
EST
Temp
°C
Wind Pressure Rain since
9am
mm
Weather Cloud Vis
km
Sea
Height
m
Swell
Dir  Spd
kts
Gust
kts
hPa Trend Height
m
Period
s
Dir
23/11:30pm 20.7 NNW 5 8 1017.0 - 0.0 - - - - - - -
23/11:00pm 20.8 NNW 6 9 1017.1 - 0.0 - - - - - - -
23/10:30pm 20.9 NNW 6 9 1017.3 - 0.0 - - - - - - -
23/10:00pm 21.1 NNW 7 11 1017.4 - 0.0 - - - - - - -
23/09:30pm 21.0 NNW 6 9 1017.6 - 0.0 - - - - - - -
23/09:00pm 21.1 NNW 7 10 1017.5 - 0.0 - - - - - - -
23/08:30pm 21.2 N 6 11 1017.2 - 0.0 - - - - - - -
23/08:00pm 21.4 NNW 6 11 1017.0 - 0.0 - - - - - - -
23/07:30pm 21.5 N 6 11 1016.7 - 0.0 - - - - - - -
23/07:00pm 21.6 NNW 6 10 1016.4 - 0.0 - - - - - - -
23/06:30pm 21.9 N 5 8 1016.1 - 0.0 - - - - - - -
23/06:00pm 22.2 N 6 10 1015.8 - 0.0 - - - - - - -
23/05:30pm 23.0 N 8 14 1015.4 - 0.0 - - - - - - -
23/05:00pm 24.0 N 8 13 1015.3 - 0.0 - - - - - - -
23/04:30pm 24.9 NNE 7 13 1015.1 - 0.0 - - - - - - -
23/04:00pm 25.8 NNE 8 15 1015.0 - 0.0 - - - - - - -
23/03:30pm 26.4 NNE 8 14 1015.0 - 0.0 - - - - - - -
23/03:00pm 27.5 NNE 9 15 1015.2 - 0.0 - - - - - - -
23/02:30pm 27.8 NNE 9 15 1015.1 - 0.0 - - - - - - -
23/02:00pm 27.7 NNE 11 16 1015.3 - 0.0 - - - - - - -
23/01:30pm 28.6 NNE 9 18 1015.6 - 0.0 - - - - - - -
23/01:00pm 29.4 NNE 9 16 1016.2 - 0.0 - - - - - - -
23/12:30pm 29.7 N 7 13 1016.8 - 0.0 - - - - - - -
23/12:00pm 27.5 NNW 7 13 1017.4 - 0.0 - - - - - - -

Other Formats:

Comma delimited format used in spreadsheet applications
http://www.bom.gov.au/fwo/IDQ60701/IDQ60701.94380.axf

JavaScript Object Notation format (JSON) in row-major order
http://www.bom.gov.au/fwo/IDQ60701/IDQ60701.94380.json